createdAt,value
2017-08-13T00:00:07.715Z,2.23
2017-08-13T00:02:34.346Z,2.00
2017-08-13T00:05:00.955Z,1.67
2017-08-13T00:07:27.550Z,1.70
2017-08-13T00:09:54.129Z,1.60
2017-08-13T00:12:20.764Z,1.63
2017-08-13T00:14:47.366Z,1.50
2017-08-13T00:17:13.954Z,1.63
2017-08-13T00:19:40.552Z,1.97
2017-08-13T00:22:07.174Z,1.80
2017-08-13T00:24:33.914Z,1.80
2017-08-13T00:27:00.495Z,1.53
2017-08-13T00:29:27.122Z,1.90
2017-08-13T00:31:53.713Z,1.50
2017-08-13T00:34:20.298Z,1.80
2017-08-13T00:36:46.891Z,1.70
2017-08-13T00:39:13.474Z,1.93
2017-08-13T00:41:40.050Z,2.03
2017-08-13T00:44:06.650Z,1.87
2017-08-13T00:46:33.418Z,2.20
2017-08-13T00:49:00.070Z,2.00
2017-08-13T00:51:26.680Z,2.03
2017-08-13T00:53:53.253Z,1.90
2017-08-13T00:56:19.846Z,2.00
2017-08-13T00:58:46.429Z,2.13
2017-08-13T01:01:13.035Z,2.17
2017-08-13T01:03:39.621Z,2.20
2017-08-13T01:06:06.215Z,2.00
2017-08-13T01:08:32.803Z,2.57
2017-08-13T01:10:59.408Z,2.23
2017-08-13T01:13:26.010Z,2.47
2017-08-13T01:15:52.582Z,2.33
2017-08-13T01:18:19.165Z,2.70
2017-08-13T01:20:45.831Z,2.60
2017-08-13T01:23:12.406Z,2.43
2017-08-13T01:25:39.007Z,2.60
2017-08-13T01:28:05.601Z,2.33
2017-08-13T01:30:32.298Z,2.43
2017-08-13T01:32:58.926Z,2.57
2017-08-13T01:35:25.542Z,2.80
2017-08-13T01:37:52.135Z,2.60
2017-08-13T01:40:18.726Z,2.60
2017-08-13T01:42:45.302Z,2.73
2017-08-13T01:45:11.898Z,2.70
2017-08-13T01:47:38.471Z,3.07
2017-08-13T01:50:05.062Z,3.10
2017-08-13T01:52:31.777Z,3.40
2017-08-13T01:54:58.339Z,3.20
2017-08-13T01:57:24.922Z,3.43
2017-08-13T01:59:51.501Z,3.20
2017-08-13T02:02:18.137Z,3.30
2017-08-13T02:04:44.731Z,3.50
2017-08-13T02:07:11.315Z,3.50
2017-08-13T02:09:37.912Z,3.50
2017-08-13T02:12:04.507Z,3.50
2017-08-13T02:14:31.138Z,3.80
2017-08-13T02:16:57.729Z,3.10
2017-08-13T02:19:24.326Z,3.43
2017-08-13T02:21:50.911Z,4.10
2017-08-13T02:24:17.486Z,3.77
2017-08-13T02:26:44.091Z,3.53
2017-08-13T02:29:10.658Z,3.60
2017-08-13T02:31:37.245Z,4.13
2017-08-13T02:34:03.841Z,3.60
2017-08-13T02:36:30.494Z,3.50
2017-08-13T02:38:57.079Z,4.50
2017-08-13T02:41:23.658Z,4.60
2017-08-13T02:43:50.263Z,4.40
2017-08-13T02:46:16.838Z,5.07
2017-08-13T02:48:43.423Z,6.03
2017-08-13T02:51:10.026Z,5.43
2017-08-13T02:53:36.750Z,6.10
2017-08-13T02:56:03.374Z,6.30
2017-08-13T02:58:30.029Z,6.60
2017-08-13T03:00:56.602Z,7.60
2017-08-13T03:03:23.185Z,7.80
2017-08-13T03:05:49.779Z,8.30
2017-08-13T03:08:16.359Z,9.13
2017-08-13T03:10:42.970Z,9.63
2017-08-13T03:13:09.698Z,10.13
2017-08-13T03:15:36.286Z,10.07
2017-08-13T03:18:02.882Z,11.00
2017-08-13T03:20:29.611Z,9.97
2017-08-13T03:22:56.210Z,9.60
2017-08-13T03:25:22.794Z,10.30
2017-08-13T03:27:49.388Z,12.07
2017-08-13T03:30:15.987Z,12.07
2017-08-13T03:32:42.583Z,11.93
2017-08-13T03:35:09.182Z,11.70
2017-08-13T03:37:35.778Z,13.50
2017-08-13T03:40:02.543Z,12.97
2017-08-13T03:42:29.142Z,12.80
2017-08-13T03:44:55.738Z,13.80
2017-08-13T03:47:22.382Z,13.47
2017-08-13T03:49:49.027Z,14.67
2017-08-13T03:52:15.598Z,14.77
2017-08-13T03:54:42.207Z,14.20
2017-08-13T03:57:08.847Z,16.00
2017-08-13T03:59:35.449Z,15.53
2017-08-13T04:02:02.083Z,15.73
2017-08-13T04:04:28.671Z,16.50
2017-08-13T04:06:55.346Z,17.23
2017-08-13T04:09:21.918Z,16.77
2017-08-13T04:11:48.514Z,15.97
2017-08-13T04:14:15.101Z,16.27
2017-08-13T04:16:41.690Z,18.40
2017-08-13T04:19:08.309Z,17.30
2017-08-13T04:21:34.977Z,17.80
2017-08-13T04:24:01.663Z,17.23
2017-08-13T04:26:28.310Z,17.07
2017-08-13T04:28:54.922Z,19.60
2017-08-13T04:31:21.519Z,20.37
2017-08-13T04:33:48.179Z,19.40
2017-08-13T04:36:14.775Z,19.80
2017-08-13T04:38:41.371Z,19.60
2017-08-13T04:41:14.703Z,21.00
2017-08-13T04:43:41.295Z,20.83
2017-08-13T04:46:07.890Z,21.47
2017-08-13T04:48:34.490Z,21.00
2017-08-13T04:51:01.077Z,22.10
2017-08-13T04:53:27.715Z,23.40
2017-08-13T04:55:54.345Z,23.30
2017-08-13T04:58:20.988Z,22.63
2017-08-13T05:00:47.570Z,22.40
2017-08-13T05:03:14.170Z,22.53
2017-08-13T05:05:40.769Z,23.60
2017-08-13T05:08:07.458Z,23.77
2017-08-13T05:10:34.046Z,24.10
2017-08-13T05:13:00.649Z,22.97
2017-08-13T05:15:27.247Z,22.87
2017-08-13T05:17:53.862Z,24.03
2017-08-13T05:20:20.463Z,23.80
2017-08-13T05:22:47.047Z,23.07
2017-08-13T05:25:13.660Z,25.73
2017-08-13T05:27:40.242Z,23.87
2017-08-13T05:30:06.855Z,24.47
2017-08-13T05:32:33.439Z,26.30
2017-08-13T05:35:00.030Z,24.70
2017-08-13T05:37:26.650Z,25.30
2017-08-13T05:39:53.253Z,25.60
2017-08-13T05:42:19.893Z,25.50
2017-08-13T05:44:46.482Z,24.50
2017-08-13T05:47:13.070Z,24.13
2017-08-13T05:49:40.625Z,24.97
2017-08-13T05:52:07.214Z,25.63
2017-08-13T05:54:33.801Z,26.40
2017-08-13T05:57:00.422Z,25.47
2017-08-13T05:59:27.010Z,24.60
2017-08-13T06:01:53.687Z,24.83
2017-08-13T06:04:20.438Z,25.50
2017-08-13T06:06:47.101Z,24.57
2017-08-13T06:09:13.710Z,26.37
2017-08-13T06:11:40.331Z,25.53
2017-08-13T06:14:06.919Z,25.50
2017-08-13T06:16:33.513Z,28.00
2017-08-13T06:19:00.102Z,25.43
2017-08-13T06:21:26.714Z,24.73
2017-08-13T06:23:53.318Z,25.03
2017-08-13T06:26:20.042Z,26.67
2017-08-13T06:28:46.634Z,23.80
2017-08-13T06:31:13.237Z,25.73
2017-08-13T06:33:39.835Z,25.80
2017-08-13T06:36:06.442Z,26.50
2017-08-13T06:38:33.026Z,26.17
2017-08-13T06:40:59.630Z,25.13
2017-08-13T06:43:26.222Z,24.47
2017-08-13T06:45:52.828Z,23.23
2017-08-13T06:48:19.435Z,26.57
2017-08-13T06:50:46.016Z,25.77
2017-08-13T06:53:12.606Z,24.83
2017-08-13T06:55:39.204Z,25.23
2017-08-13T06:58:05.822Z,24.57
2017-08-13T07:00:32.410Z,24.10
2017-08-13T07:02:58.998Z,26.10
2017-08-13T07:05:25.593Z,25.07
2017-08-13T07:07:52.191Z,23.70
2017-08-13T07:10:18.823Z,25.80
2017-08-13T07:12:45.410Z,25.80
2017-08-13T07:15:12.001Z,26.90
2017-08-13T07:17:38.602Z,26.17
2017-08-13T07:20:05.190Z,26.20
2017-08-13T07:22:31.819Z,27.30
2017-08-13T07:24:58.397Z,27.00
2017-08-13T07:27:24.996Z,28.77
2017-08-13T07:29:51.598Z,27.97
2017-08-13T07:32:18.192Z,25.70
2017-08-13T07:34:44.797Z,26.33
2017-08-13T07:37:11.466Z,27.53
2017-08-13T07:39:38.080Z,26.30
2017-08-13T07:42:04.677Z,26.37
2017-08-13T07:44:31.267Z,28.00
2017-08-13T07:46:57.946Z,28.90
2017-08-13T07:49:24.518Z,28.77
2017-08-13T07:51:51.154Z,29.30
2017-08-13T07:54:17.751Z,29.20
2017-08-13T07:56:44.366Z,28.57
2017-08-13T07:59:10.970Z,28.97
2017-08-13T08:01:37.558Z,29.17
2017-08-13T08:04:04.154Z,30.70
2017-08-13T08:06:30.760Z,31.73
2017-08-13T08:08:57.344Z,31.43
2017-08-13T08:11:24.003Z,31.27
2017-08-13T08:13:50.781Z,31.67
2017-08-13T08:16:17.366Z,31.23
2017-08-13T08:18:43.961Z,29.30
2017-08-13T08:21:10.556Z,30.13
2017-08-13T08:23:37.167Z,30.40
2017-08-13T08:26:03.825Z,30.90
2017-08-13T08:28:30.425Z,30.27
2017-08-13T08:30:57.045Z,30.23
2017-08-13T08:33:23.614Z,28.87
2017-08-13T08:35:50.204Z,30.37
2017-08-13T08:38:16.811Z,28.80
2017-08-13T08:40:43.414Z,30.27
2017-08-13T08:43:09.999Z,32.00
2017-08-13T08:45:36.590Z,29.93
2017-08-13T08:48:12.992Z,30.30
2017-08-13T08:50:39.589Z,30.27
2017-08-13T08:53:07.314Z,31.07
2017-08-13T08:55:33.922Z,28.43
2017-08-13T08:58:00.503Z,28.27
2017-08-13T09:00:37.477Z,28.83
2017-08-13T09:03:04.063Z,28.10
2017-08-13T09:05:30.651Z,28.33
2017-08-13T09:07:57.309Z,26.43
2017-08-13T09:10:23.912Z,26.83
2017-08-13T09:12:50.624Z,26.87
2017-08-13T09:15:17.208Z,26.70
2017-08-13T09:17:43.818Z,26.37
2017-08-13T09:20:10.406Z,23.57
2017-08-13T09:22:46.815Z,24.50
2017-08-13T09:25:13.450Z,24.63
2017-08-13T09:27:40.034Z,25.83
2017-08-13T09:30:06.623Z,25.13
2017-08-13T09:32:33.226Z,25.30
2017-08-13T09:34:59.838Z,24.30
2017-08-13T09:37:26.428Z,24.63
2017-08-13T09:39:53.026Z,23.93
2017-08-13T09:42:19.674Z,23.97
2017-08-13T09:44:46.271Z,22.67
2017-08-13T09:47:12.902Z,23.20
2017-08-13T09:49:39.495Z,23.80
2017-08-13T09:52:06.112Z,21.60
2017-08-13T09:54:32.717Z,21.23
2017-08-13T09:56:59.357Z,19.27
2017-08-13T09:59:25.978Z,20.10
2017-08-13T10:01:52.603Z,20.40
2017-08-13T10:04:19.185Z,22.90
2017-08-13T10:06:45.886Z,20.47
2017-08-13T10:09:12.491Z,20.47
2017-08-13T10:11:39.087Z,19.80
2017-08-13T10:14:05.699Z,18.60
2017-08-13T10:16:32.332Z,14.70
2017-08-13T10:18:59.004Z,15.43
2017-08-13T10:21:25.626Z,16.23
2017-08-13T10:23:52.302Z,13.80
2017-08-13T10:26:18.914Z,14.80
2017-08-13T10:28:45.625Z,14.30
2017-08-13T10:31:12.257Z,15.57
2017-08-13T10:33:38.878Z,16.47
2017-08-13T10:36:05.539Z,17.00
2017-08-13T10:38:32.198Z,14.00
2017-08-13T10:40:58.808Z,15.87
2017-08-13T10:43:25.415Z,15.50
2017-08-13T10:45:52.018Z,15.13
2017-08-13T10:48:18.622Z,14.33
2017-08-13T10:50:45.245Z,14.30
2017-08-13T10:53:18.494Z,11.20
2017-08-13T10:55:45.162Z,10.07
2017-08-13T10:58:11.754Z,9.03
2017-08-13T11:00:38.374Z,9.30
2017-08-13T11:03:04.967Z,11.10
2017-08-13T11:05:31.864Z,11.80
2017-08-13T11:07:58.707Z,11.73
2017-08-13T11:10:25.322Z,12.60
2017-08-13T11:12:51.906Z,11.73
2017-08-13T11:15:18.559Z,11.10
2017-08-13T11:17:45.176Z,11.40
2017-08-13T11:20:11.762Z,10.40
2017-08-13T11:22:38.408Z,10.03
2017-08-13T11:25:05.131Z,9.00
2017-08-13T11:27:31.806Z,9.13
2017-08-13T11:29:59.368Z,10.43
2017-08-13T11:32:25.976Z,10.30
2017-08-13T11:34:59.252Z,9.87
2017-08-13T11:37:25.853Z,10.47
2017-08-13T11:39:52.438Z,9.67
2017-08-13T11:42:29.395Z,9.63
2017-08-13T11:44:59.135Z,9.20
2017-08-13T11:47:25.758Z,9.23
2017-08-13T11:49:52.596Z,9.90
2017-08-13T11:52:19.253Z,11.10
2017-08-13T11:54:45.856Z,9.40
2017-08-13T11:57:12.531Z,9.70
2017-08-13T11:59:39.181Z,8.20
2017-08-13T12:02:05.767Z,8.73
2017-08-13T12:04:32.365Z,6.80
2017-08-13T12:06:59.362Z,7.47
2017-08-13T12:09:25.994Z,7.80
2017-08-13T12:11:52.690Z,7.57
2017-08-13T12:14:19.266Z,7.77
2017-08-13T12:16:52.439Z,9.10
2017-08-13T12:19:19.084Z,8.53
2017-08-13T12:21:51.389Z,9.03
2017-08-13T12:24:17.962Z,7.60
2017-08-13T12:26:45.230Z,7.33
2017-08-13T12:29:18.046Z,7.40
2017-08-13T12:31:44.619Z,6.87
2017-08-13T12:34:11.228Z,6.63
2017-08-13T12:36:37.827Z,7.13
2017-08-13T12:39:04.423Z,6.60
2017-08-13T12:41:41.418Z,6.97
2017-08-13T12:44:08.015Z,6.57
2017-08-13T12:46:34.650Z,7.10
2017-08-13T12:49:01.387Z,6.50
2017-08-13T12:51:28.076Z,7.17
2017-08-13T12:53:54.726Z,7.10
2017-08-13T12:56:21.295Z,7.50
2017-08-13T12:58:47.901Z,6.10
2017-08-13T13:01:14.486Z,6.77
2017-08-13T13:03:41.071Z,6.47
2017-08-13T13:06:07.731Z,5.47
2017-08-13T13:08:34.318Z,5.30
2017-08-13T13:11:01.067Z,5.53
2017-08-13T13:13:27.659Z,5.53
2017-08-13T13:15:54.234Z,5.33
2017-08-13T13:18:20.826Z,5.20
2017-08-13T13:20:47.436Z,5.10
2017-08-13T13:23:14.018Z,5.00
2017-08-13T13:25:40.606Z,5.07
2017-08-13T13:28:07.229Z,4.97
2017-08-13T13:30:33.874Z,4.43
2017-08-13T13:33:00.498Z,4.63
2017-08-13T13:35:27.114Z,4.60
2017-08-13T13:37:53.793Z,4.50
2017-08-13T13:40:20.471Z,5.17
2017-08-13T13:42:47.168Z,5.10
2017-08-13T13:45:13.742Z,5.10
2017-08-13T13:47:40.335Z,4.90
2017-08-13T13:50:06.918Z,5.20
2017-08-13T13:52:41.837Z,5.43
2017-08-13T13:55:14.403Z,5.47
2017-08-13T13:57:41.024Z,5.93
2017-08-13T14:00:07.618Z,5.90
2017-08-13T14:02:34.229Z,5.30
2017-08-13T14:05:00.916Z,5.60
2017-08-13T14:07:27.511Z,5.47
2017-08-13T14:09:54.133Z,5.03
2017-08-13T14:12:20.733Z,5.10
2017-08-13T14:14:54.746Z,5.30
2017-08-13T14:17:21.306Z,4.77
2017-08-13T14:19:47.885Z,4.63
2017-08-13T14:22:17.641Z,4.50
2017-08-13T14:24:44.223Z,4.80
2017-08-13T14:27:10.821Z,4.80
2017-08-13T14:29:37.403Z,5.00
2017-08-13T14:32:04.063Z,5.10
2017-08-13T14:34:30.675Z,5.13
2017-08-13T14:37:05.264Z,4.70
2017-08-13T14:39:31.886Z,4.93
2017-08-13T14:41:58.478Z,4.67
2017-08-13T14:44:25.077Z,4.73
2017-08-13T14:46:51.650Z,4.87
2017-08-13T14:49:18.230Z,4.30
2017-08-13T14:51:44.818Z,4.97
2017-08-13T14:54:11.398Z,4.80
2017-08-13T14:56:38.000Z,4.60
2017-08-13T14:59:04.587Z,3.97
2017-08-13T15:01:31.179Z,4.10
2017-08-13T15:03:57.762Z,4.17
2017-08-13T15:06:24.356Z,3.70
2017-08-13T15:08:50.950Z,4.00
2017-08-13T15:11:17.597Z,4.10
2017-08-13T15:13:44.161Z,3.50
2017-08-13T15:16:10.837Z,3.40
2017-08-13T15:18:37.520Z,3.63
2017-08-13T15:21:04.127Z,3.60
2017-08-13T15:23:30.740Z,3.83
2017-08-13T15:25:57.482Z,3.70
2017-08-13T15:28:24.090Z,3.50
2017-08-13T15:30:50.670Z,3.73
2017-08-13T15:33:17.417Z,3.70
2017-08-13T15:35:45.218Z,3.47
2017-08-13T15:38:11.809Z,3.40
2017-08-13T15:40:38.396Z,3.07
2017-08-13T15:43:04.982Z,3.23
2017-08-13T15:45:31.694Z,3.30
2017-08-13T15:47:58.736Z,3.20
2017-08-13T15:50:25.534Z,2.70
2017-08-13T15:52:52.138Z,2.50
2017-08-13T15:55:26.992Z,3.03
2017-08-13T15:57:53.617Z,3.03
2017-08-13T16:00:26.913Z,2.77
2017-08-13T16:02:54.411Z,2.60
2017-08-13T16:05:27.682Z,2.67
2017-08-13T16:07:54.342Z,2.50
2017-08-13T16:10:20.930Z,3.00
2017-08-13T16:12:47.548Z,2.80
2017-08-13T16:15:14.131Z,3.00
2017-08-13T16:17:46.559Z,3.23
2017-08-13T16:23:14.023Z,3.50
2017-08-13T16:25:40.628Z,2.83
2017-08-13T16:28:07.225Z,3.00
2017-08-13T16:30:43.685Z,2.90
2017-08-13T16:33:10.367Z,3.03
2017-08-13T16:35:37.094Z,2.90
2017-08-13T16:38:03.795Z,3.03
2017-08-13T16:40:30.493Z,2.90
2017-08-13T16:42:57.104Z,3.73
2017-08-13T16:45:23.732Z,3.40
2017-08-13T16:47:50.340Z,2.90
2017-08-13T16:50:16.935Z,3.33
2017-08-13T16:52:43.563Z,3.20
2017-08-13T16:55:10.184Z,3.70
2017-08-13T16:57:36.769Z,3.70
2017-08-13T17:00:03.523Z,4.03
2017-08-13T17:02:30.156Z,4.30
2017-08-13T17:04:56.836Z,4.20
2017-08-13T17:07:23.638Z,4.20
2017-08-13T17:09:50.255Z,4.20
2017-08-13T17:12:16.892Z,4.50
2017-08-13T17:14:43.574Z,4.33
2017-08-13T17:17:10.172Z,4.70
2017-08-13T17:19:36.767Z,4.53
2017-08-13T17:22:03.776Z,4.27
2017-08-13T17:24:30.547Z,5.30
2017-08-13T17:26:57.173Z,5.03
2017-08-13T17:29:23.792Z,5.20
2017-08-13T17:31:50.369Z,5.10
2017-08-13T17:34:16.967Z,5.30
2017-08-13T17:36:43.604Z,5.60
2017-08-13T17:39:10.256Z,5.70
2017-08-13T17:41:36.927Z,5.40
2017-08-13T17:44:03.557Z,4.97
2017-08-13T17:46:30.186Z,5.20
2017-08-13T17:48:56.776Z,4.97
2017-08-13T17:51:23.383Z,5.27
2017-08-13T17:53:50.019Z,5.20
2017-08-13T17:56:16.665Z,5.60
2017-08-13T17:58:43.259Z,4.93
2017-08-13T18:01:09.851Z,5.20
2017-08-13T18:03:36.464Z,4.90
2017-08-13T18:06:03.222Z,4.80
2017-08-13T18:08:29.839Z,5.00
2017-08-13T18:10:56.423Z,4.90
2017-08-13T18:13:23.013Z,6.30
2017-08-13T18:15:49.613Z,9.30
2017-08-13T18:18:16.236Z,8.00
2017-08-13T18:20:42.844Z,7.90
2017-08-13T18:23:09.456Z,14.87
2017-08-13T18:25:36.052Z,18.47
2017-08-13T18:28:02.755Z,15.77
2017-08-13T18:30:29.399Z,15.27
2017-08-13T18:32:56.036Z,10.47
2017-08-13T18:35:22.613Z,8.03
2017-08-13T18:37:49.199Z,7.73
2017-08-13T18:40:15.799Z,8.10
2017-08-13T18:42:42.404Z,7.47
2017-08-13T18:45:09.011Z,6.70
2017-08-13T18:47:35.601Z,6.87
2017-08-13T18:50:02.217Z,7.60
2017-08-13T18:52:28.908Z,8.80
2017-08-13T18:54:55.487Z,8.63
2017-08-13T18:57:22.100Z,7.40
2017-08-13T18:59:48.688Z,6.60
2017-08-13T19:02:15.275Z,7.27
2017-08-13T19:04:41.872Z,6.70
2017-08-13T19:07:08.464Z,6.80
2017-08-13T19:09:35.099Z,7.00
2017-08-13T19:12:01.690Z,7.07
2017-08-13T19:14:28.302Z,7.10
2017-08-13T19:16:55.083Z,7.67
2017-08-13T19:19:21.650Z,7.40
2017-08-13T19:21:48.266Z,6.43
2017-08-13T19:24:14.963Z,6.40
2017-08-13T19:26:41.556Z,6.10
2017-08-13T19:29:08.155Z,6.07
2017-08-13T19:31:34.821Z,7.63
2017-08-13T19:34:01.419Z,9.70
2017-08-13T19:36:28.011Z,10.40
2017-08-13T19:38:54.624Z,11.43
2017-08-13T19:41:21.208Z,9.27
2017-08-13T19:43:47.797Z,7.43
2017-08-13T19:46:14.401Z,6.50
2017-08-13T19:48:40.990Z,6.30
2017-08-13T19:51:07.587Z,6.83
2017-08-13T19:53:34.188Z,6.87
2017-08-13T19:56:00.821Z,6.40
2017-08-13T19:58:27.407Z,6.43
2017-08-13T20:00:54.008Z,7.37
2017-08-13T20:03:20.591Z,7.47
2017-08-13T20:05:47.199Z,7.60
2017-08-13T20:08:13.788Z,7.20
2017-08-13T20:10:40.385Z,6.87
2017-08-13T20:13:06.998Z,7.40
2017-08-13T20:15:33.576Z,6.30
2017-08-13T20:18:00.186Z,6.47
2017-08-13T20:20:26.786Z,6.80
2017-08-13T20:22:53.392Z,6.40
2017-08-13T20:25:19.995Z,7.33
2017-08-13T20:27:46.583Z,7.03
2017-08-13T20:30:13.208Z,7.73
2017-08-13T20:32:39.796Z,6.90
2017-08-13T20:35:16.933Z,7.57
2017-08-13T20:37:43.517Z,7.87
2017-08-13T20:40:10.121Z,7.40
2017-08-13T20:42:36.755Z,6.70
2017-08-13T20:45:03.422Z,7.00
2017-08-13T20:47:30.106Z,7.60
2017-08-13T20:49:56.688Z,8.20
2017-08-13T20:52:23.287Z,8.50
2017-08-13T20:54:49.931Z,8.53
2017-08-13T20:57:16.572Z,8.23
2017-08-13T20:59:43.204Z,7.97
2017-08-13T21:02:09.796Z,6.80
2017-08-13T21:04:36.458Z,7.40
2017-08-13T21:07:03.095Z,7.20
2017-08-13T21:09:29.724Z,7.63
2017-08-13T21:11:56.348Z,8.03
2017-08-13T21:14:22.936Z,7.57
2017-08-13T21:16:49.551Z,7.10
2017-08-13T21:19:16.161Z,7.57
2017-08-13T21:21:42.764Z,7.77
2017-08-13T21:24:09.375Z,7.90
2017-08-13T21:26:35.969Z,8.60
2017-08-13T21:29:02.562Z,7.37
2017-08-13T21:31:29.208Z,8.03
2017-08-13T21:33:55.812Z,8.83
2017-08-13T21:36:22.417Z,7.83
2017-08-13T21:38:49.024Z,8.40
2017-08-13T21:41:15.611Z,7.93
2017-08-13T21:43:42.208Z,8.10
2017-08-13T21:46:08.959Z,8.07
2017-08-13T21:48:35.575Z,7.90
2017-08-13T21:51:02.217Z,7.50
2017-08-13T21:53:28.824Z,8.07
2017-08-13T21:55:55.424Z,8.20
2017-08-13T21:58:22.019Z,8.10
2017-08-13T22:00:48.728Z,7.40
2017-08-13T22:03:15.317Z,8.20
2017-08-13T22:05:41.908Z,7.67
2017-08-13T22:08:08.549Z,7.70
2017-08-13T22:10:35.160Z,7.50
2017-08-13T22:13:01.771Z,7.77
2017-08-13T22:15:28.748Z,8.63
2017-08-13T22:17:55.334Z,7.77
2017-08-13T22:20:21.927Z,7.60
2017-08-13T22:22:48.641Z,8.10
2017-08-13T22:25:15.244Z,8.50
2017-08-13T22:27:41.834Z,8.53
2017-08-13T22:30:08.444Z,8.27
2017-08-13T22:32:35.036Z,7.70
2017-08-13T22:35:01.644Z,7.80
2017-08-13T22:37:28.300Z,8.13
2017-08-13T22:39:54.989Z,8.40
2017-08-13T22:42:21.576Z,8.03
2017-08-13T22:44:48.188Z,7.60
2017-08-13T22:47:14.783Z,8.20
2017-08-13T22:49:41.393Z,7.80
2017-08-13T22:52:07.988Z,7.70
2017-08-13T22:54:34.615Z,8.50
2017-08-13T22:57:01.225Z,7.67
2017-08-13T22:59:27.827Z,7.73
2017-08-13T23:01:54.436Z,7.50
2017-08-13T23:04:21.029Z,8.03
2017-08-13T23:06:47.623Z,8.07
2017-08-13T23:09:14.235Z,8.20
2017-08-13T23:11:40.828Z,8.53
2017-08-13T23:14:07.500Z,8.20
2017-08-13T23:16:34.107Z,8.30
2017-08-13T23:19:00.783Z,8.47
2017-08-13T23:21:27.388Z,8.37
2017-08-13T23:23:53.984Z,8.40
2017-08-13T23:26:20.575Z,8.47
2017-08-13T23:28:47.181Z,7.83
2017-08-13T23:31:13.771Z,8.47
2017-08-13T23:33:40.389Z,8.70
2017-08-13T23:36:06.995Z,8.33
2017-08-13T23:38:33.612Z,8.27
2017-08-13T23:41:00.236Z,8.10
2017-08-13T23:43:26.827Z,7.97
2017-08-13T23:45:53.440Z,8.87
2017-08-13T23:48:20.032Z,8.57
2017-08-13T23:50:46.673Z,8.63
2017-08-13T23:53:13.282Z,8.53
2017-08-13T23:55:39.868Z,7.87
2017-08-13T23:58:06.452Z,8.30
